createdAt,value
2018-04-02T00:02:12.543Z,3.60
2018-04-02T00:04:41.462Z,3.60
2018-04-02T00:07:10.682Z,3.60
2018-04-02T00:09:40.443Z,3.70
2018-04-02T00:12:12.174Z,3.70
2018-04-02T00:14:43.450Z,3.70
2018-04-02T00:17:15.047Z,3.70
2018-04-02T00:19:43.151Z,3.70
2018-04-02T00:22:11.199Z,3.70
2018-04-02T00:24:41.108Z,3.70
2018-04-02T00:27:11.154Z,3.70
2018-04-02T00:29:40.118Z,3.70
2018-04-02T00:32:09.998Z,3.70
2018-04-02T00:34:38.062Z,3.70
2018-04-02T00:37:09.118Z,3.70
2018-04-02T00:39:41.002Z,3.70
2018-04-02T00:42:14.774Z,3.70
2018-04-02T00:44:43.054Z,3.70
2018-04-02T00:47:13.394Z,3.70
2018-04-02T00:49:45.795Z,3.60
2018-04-02T00:52:14.839Z,3.50
2018-04-02T00:54:44.814Z,3.50
2018-04-02T00:57:14.734Z,3.30
2018-04-02T00:59:54.734Z,3.30
2018-04-02T01:02:24.938Z,3.20
2018-04-02T01:04:54.030Z,3.10
2018-04-02T01:07:22.058Z,3.10
2018-04-02T01:09:51.013Z,3.20
2018-04-02T01:12:19.666Z,3.20
2018-04-02T01:14:49.141Z,3.20
2018-04-02T01:17:17.942Z,3.30
2018-04-02T01:19:52.846Z,3.30
2018-04-02T01:22:20.822Z,3.40
2018-04-02T01:24:52.109Z,3.40
2018-04-02T01:27:21.021Z,3.40
2018-04-02T01:29:56.123Z,3.30
2018-04-02T01:32:27.478Z,3.30
2018-04-02T01:35:07.562Z,3.20
2018-04-02T01:37:36.606Z,3.10
2018-04-02T01:40:05.586Z,3.00
2018-04-02T01:42:38.478Z,2.80
2018-04-02T01:45:06.517Z,2.70
2018-04-02T01:47:44.194Z,2.60
2018-04-02T01:50:13.134Z,2.60
2018-04-02T01:52:44.793Z,2.50
2018-04-02T01:55:13.738Z,2.40
2018-04-02T01:57:41.787Z,2.30
2018-04-02T02:00:10.722Z,2.20
2018-04-02T02:02:38.753Z,2.20
2018-04-02T02:05:10.882Z,2.10
2018-04-02T02:07:40.842Z,2.00
2018-04-02T02:10:11.029Z,2.20
2018-04-02T02:12:39.317Z,2.10
2018-04-02T02:15:10.361Z,2.20
2018-04-02T02:17:38.369Z,2.20
2018-04-02T02:20:06.522Z,2.10
2018-04-02T02:22:35.521Z,2.10
2018-04-02T02:25:03.582Z,2.00
2018-04-02T02:27:35.925Z,2.00
2018-04-02T02:30:12.070Z,1.90
2018-04-02T02:32:42.044Z,1.80
2018-04-02T02:35:10.276Z,1.60
2018-04-02T02:37:45.305Z,1.50
2018-04-02T02:40:13.699Z,1.50
2018-04-02T02:42:45.213Z,1.90
2018-04-02T02:45:21.815Z,1.90
2018-04-02T02:47:50.848Z,2.00
2018-04-02T02:50:19.927Z,2.20
2018-04-02T02:52:49.178Z,2.40
2018-04-02T02:55:17.226Z,2.40
2018-04-02T02:57:45.254Z,2.50
2018-04-02T03:00:17.649Z,2.50
2018-04-02T03:02:45.676Z,2.50
2018-04-02T03:05:16.969Z,2.50
2018-04-02T03:07:45.005Z,2.40
2018-04-02T03:10:18.013Z,2.20
2018-04-02T03:12:47.049Z,2.10
2018-04-02T03:15:18.478Z,1.90
2018-04-02T03:17:49.363Z,1.70
2018-04-02T03:20:36.452Z,1.70
2018-04-02T03:23:10.833Z,1.70
2018-04-02T03:25:42.369Z,1.60
2018-04-02T03:28:10.408Z,1.60
2018-04-02T03:30:38.458Z,1.50
2018-04-02T03:33:07.417Z,1.40
2018-04-02T03:35:36.597Z,1.20
2018-04-02T03:38:08.937Z,1.20
2018-04-02T03:40:39.245Z,1.20
2018-04-02T03:43:07.289Z,1.20
2018-04-02T03:45:39.084Z,1.10
2018-04-02T03:48:07.132Z,0.90
2018-04-02T03:50:36.077Z,0.80
2018-04-02T03:53:08.920Z,0.80
2018-04-02T03:55:39.024Z,1.00
2018-04-02T03:58:07.993Z,1.10
2018-04-02T04:00:40.501Z,1.20
2018-04-02T04:03:10.229Z,1.20
2018-04-02T04:05:38.329Z,1.20
2018-04-02T04:08:10.685Z,1.30
2018-04-02T04:10:43.616Z,1.30
2018-04-02T04:13:11.693Z,1.20
2018-04-02T04:15:39.745Z,1.00
2018-04-02T04:20:46.414Z,0.90
2018-04-02T04:23:16.457Z,0.80
2018-04-02T04:25:45.996Z,0.80
2018-04-02T04:28:14.072Z,0.70
2018-04-02T04:30:44.380Z,0.70
2018-04-02T04:33:20.784Z,0.70
2018-04-02T04:35:53.009Z,0.70
2018-04-02T04:38:21.673Z,0.70
2018-04-02T04:40:49.760Z,0.60
2018-04-02T04:43:17.860Z,0.40
2018-04-02T04:45:51.525Z,0.30
2018-04-02T04:48:21.508Z,0.30
2018-04-02T04:50:53.996Z,0.30
2018-04-02T04:53:27.800Z,0.30
2018-04-02T04:55:55.892Z,0.30
2018-04-02T04:58:28.237Z,0.20
2018-04-02T05:00:57.236Z,0.20
2018-04-02T05:03:26.249Z,0.20
2018-04-02T05:05:55.040Z,0.20
2018-04-02T05:08:28.188Z,0.20
2018-04-02T05:10:56.208Z,0.20
2018-04-02T05:13:31.280Z,0.30
2018-04-02T05:15:59.300Z,0.40
2018-04-02T05:18:28.136Z,0.50
2018-04-02T05:20:59.724Z,0.50
2018-04-02T05:23:28.714Z,0.40
2018-04-02T05:25:57.704Z,0.50
2018-04-02T05:28:32.612Z,0.50
2018-04-02T05:31:08.245Z,0.60
2018-04-02T05:33:39.196Z,0.60
2018-04-02T05:36:07.234Z,0.60
2018-04-02T05:38:35.252Z,0.70
2018-04-02T05:41:14.144Z,0.70
2018-04-02T05:43:42.180Z,0.80
2018-04-02T05:46:10.216Z,1.00
2018-04-02T05:48:44.448Z,1.10
2018-04-02T05:51:12.476Z,1.20
2018-04-02T05:53:44.180Z,1.30
2018-04-02T05:56:14.108Z,1.40
2018-04-02T05:58:42.888Z,1.60
2018-04-02T06:01:15.444Z,1.70
2018-04-02T06:03:45.388Z,1.70
2018-04-02T06:06:25.492Z,1.90
2018-04-02T06:08:59.216Z,2.00
2018-04-02T06:11:27.272Z,2.10
2018-04-02T06:13:58.838Z,2.20
2018-04-02T06:16:27.947Z,2.30
2018-04-02T06:19:02.359Z,2.50
2018-04-02T06:21:32.444Z,2.50
2018-04-02T06:24:00.475Z,2.60
2018-04-02T06:26:32.512Z,2.80
2018-04-02T06:29:01.363Z,3.10
2018-04-02T06:31:30.392Z,3.10
2018-04-02T06:34:04.856Z,3.30
2018-04-02T06:36:33.894Z,3.30
2018-04-02T06:39:01.947Z,3.30
2018-04-02T06:41:30.955Z,3.40
2018-04-02T06:44:11.968Z,3.50
2018-04-02T06:46:40.931Z,3.70
2018-04-02T06:49:15.424Z,4.20
2018-04-02T06:51:46.372Z,4.10
2018-04-02T06:54:14.404Z,4.40
2018-04-02T06:56:45.752Z,4.70
2018-04-02T06:59:15.716Z,4.90
2018-04-02T07:01:47.147Z,5.10
2018-04-02T07:04:17.178Z,5.10
2018-04-02T07:06:46.144Z,5.20
2018-04-02T07:09:17.608Z,4.90
2018-04-02T07:11:46.555Z,4.60
2018-04-02T07:14:14.587Z,4.40
2018-04-02T07:16:44.507Z,4.40
2018-04-02T07:19:13.463Z,4.40
2018-04-02T07:21:43.395Z,4.40
2018-04-02T07:24:23.823Z,4.40
2018-04-02T07:26:51.839Z,4.50
2018-04-02T07:29:24.681Z,4.90
2018-04-02T07:31:53.552Z,4.90
2018-04-02T07:34:23.472Z,5.20
2018-04-02T07:36:53.395Z,5.60
2018-04-02T07:39:22.428Z,6.10
2018-04-02T07:41:54.168Z,6.80
2018-04-02T07:44:36.223Z,7.80
2018-04-02T07:47:11.280Z,8.20
2018-04-02T07:49:43.371Z,8.10
2018-04-02T07:52:12.300Z,8.10
2018-04-02T07:54:40.335Z,8.30
2018-04-02T07:57:09.329Z,8.90
2018-04-02T07:59:42.924Z,9.20
2018-04-02T08:02:17.017Z,9.00
2018-04-02T08:04:46.035Z,8.60
2018-04-02T08:07:24.325Z,8.00
2018-04-02T08:12:51.687Z,8.10
2018-04-02T08:15:33.327Z,7.80
2018-04-02T08:18:05.645Z,7.60
2018-04-02T08:20:36.304Z,7.50
2018-04-02T08:23:06.348Z,7.50
2018-04-02T08:25:40.531Z,7.50
2018-04-02T08:28:13.215Z,7.50
2018-04-02T08:30:41.247Z,8.00
2018-04-02T08:33:13.659Z,8.20
2018-04-02T08:35:42.599Z,8.60
2018-04-02T08:38:12.523Z,8.50
2018-04-02T08:40:40.551Z,9.30
2018-04-02T08:43:19.012Z,9.60
2018-04-02T08:45:47.959Z,10.00
2018-04-02T08:48:31.311Z,9.80
2018-04-02T08:51:00.259Z,9.70
2018-04-02T08:53:29.243Z,9.40
2018-04-02T08:56:07.523Z,9.70
2018-04-02T08:58:46.443Z,10.00
2018-04-02T09:01:17.699Z,9.60
2018-04-02T09:03:51.431Z,9.90
2018-04-02T09:06:19.463Z,11.30
2018-04-02T09:08:47.512Z,12.70
2018-04-02T09:11:41.727Z,14.00
2018-04-02T09:17:07.903Z,15.00
2018-04-02T09:19:36.891Z,14.90
2018-04-02T09:22:04.930Z,14.60
2018-04-02T09:24:32.967Z,14.30
2018-04-02T09:27:06.028Z,14.50
2018-04-02T09:29:34.066Z,14.50
2018-04-02T09:32:10.071Z,14.50
2018-04-02T09:34:39.055Z,14.40
2018-04-02T09:37:12.711Z,14.70
2018-04-02T09:39:44.519Z,15.20
2018-04-02T09:42:16.428Z,16.30
2018-04-02T09:44:49.183Z,16.30
2018-04-02T09:47:20.806Z,16.50
2018-04-02T09:50:15.539Z,15.80
2018-04-02T09:52:48.114Z,16.20
2018-04-02T09:55:24.690Z,16.20
2018-04-02T09:57:58.557Z,16.30
2018-04-02T10:00:37.779Z,16.40
2018-04-02T10:03:13.811Z,16.60
2018-04-02T10:05:52.523Z,15.30
2018-04-02T10:08:28.302Z,15.70
2018-04-02T10:11:06.206Z,16.40
2018-04-02T10:13:41.950Z,16.40
2018-04-02T10:16:09.994Z,17.20
2018-04-02T10:18:39.924Z,17.90
2018-04-02T10:21:14.414Z,17.80
2018-04-02T10:23:46.528Z,17.80
2018-04-02T10:26:20.368Z,17.80
2018-04-02T10:29:06.348Z,16.80
2018-04-02T10:31:53.911Z,16.80
2018-04-02T10:34:36.735Z,15.60
2018-04-02T10:37:11.869Z,15.60
2018-04-02T10:39:49.466Z,16.80
2018-04-02T10:42:25.023Z,17.30
2018-04-02T10:45:05.582Z,17.70
2018-04-02T10:47:37.658Z,16.00
2018-04-02T10:53:07.692Z,17.00
2018-04-02T10:55:36.735Z,18.10
2018-04-02T10:58:28.662Z,18.30
2018-04-02T11:01:01.514Z,16.80
2018-04-02T11:03:33.175Z,16.80
2018-04-02T11:06:11.558Z,16.10
2018-04-02T11:08:45.278Z,16.40
2018-04-02T11:11:15.630Z,16.70
2018-04-02T11:13:48.102Z,16.60
2018-04-02T11:16:17.794Z,18.20
2018-04-02T11:18:46.761Z,18.20
2018-04-02T11:21:35.186Z,17.50
2018-04-02T11:24:03.198Z,17.40
2018-04-02T11:26:32.091Z,17.00
2018-04-02T11:29:00.170Z,16.70
2018-04-02T11:31:33.166Z,16.90
2018-04-02T11:34:06.047Z,17.10
2018-04-02T11:36:35.166Z,17.50
2018-04-02T11:39:09.125Z,17.70
2018-04-02T11:41:39.389Z,16.90
2018-04-02T11:44:08.154Z,17.00
2018-04-02T11:46:36.178Z,16.90
2018-04-02T11:49:07.450Z,16.70
2018-04-02T11:51:41.053Z,17.10
2018-04-02T11:54:11.074Z,17.20
2018-04-02T11:56:42.430Z,17.10
2018-04-02T11:59:17.726Z,17.50
2018-04-02T12:01:47.680Z,18.10
2018-04-02T12:04:21.262Z,17.40
2018-04-02T12:06:50.274Z,17.50
2018-04-02T12:09:31.085Z,17.70
2018-04-02T12:11:59.102Z,17.90
2018-04-02T12:14:27.093Z,17.90
2018-04-02T12:16:59.781Z,18.10
2018-04-02T12:19:39.990Z,19.20
2018-04-02T12:22:09.934Z,19.20
2018-04-02T12:24:45.341Z,18.90
2018-04-02T12:27:25.077Z,18.60
2018-04-02T12:29:59.650Z,18.00
2018-04-02T12:32:30.681Z,18.30
2018-04-02T12:35:05.982Z,18.60
2018-04-02T12:37:37.038Z,18.30
2018-04-02T12:40:10.670Z,18.60
2018-04-02T12:42:39.722Z,18.60
2018-04-02T12:45:08.662Z,18.20
2018-04-02T12:47:41.418Z,18.00
2018-04-02T12:50:09.542Z,18.00
2018-04-02T12:52:40.222Z,17.50
2018-04-02T12:55:10.246Z,17.50
2018-04-02T12:57:43.998Z,16.90
2018-04-02T13:00:12.002Z,17.40
2018-04-02T13:02:40.034Z,17.70
2018-04-02T13:05:08.044Z,18.10
2018-04-02T13:07:38.094Z,17.80
2018-04-02T13:10:13.602Z,17.50
2018-04-02T13:12:43.537Z,17.20
2018-04-02T13:15:14.725Z,17.50
2018-04-02T13:17:42.945Z,18.10
2018-04-02T13:20:11.026Z,18.10
2018-04-02T13:22:39.042Z,18.10
2018-04-02T13:25:09.005Z,18.50
2018-04-02T13:27:38.901Z,18.40
2018-04-02T13:30:08.830Z,18.80
2018-04-02T13:32:36.853Z,19.00
2018-04-02T13:35:08.689Z,19.10
2018-04-02T13:37:38.662Z,18.50
2018-04-02T13:40:06.681Z,18.20
2018-04-02T13:42:37.373Z,18.20
2018-04-02T13:48:04.434Z,18.20
2018-04-02T13:50:46.777Z,18.50
2018-04-02T13:53:15.557Z,18.80
2018-04-02T13:55:43.558Z,18.80
2018-04-02T13:58:14.533Z,19.30
2018-04-02T14:00:48.154Z,18.80
2018-04-02T14:03:27.751Z,18.40
2018-04-02T14:06:02.577Z,18.20
2018-04-02T14:08:33.653Z,18.40
2018-04-02T14:11:14.085Z,18.70
2018-04-02T14:13:43.021Z,18.50
2018-04-02T14:16:11.997Z,18.20
2018-04-02T14:18:47.313Z,18.10
2018-04-02T14:21:17.241Z,17.90
2018-04-02T14:23:46.148Z,18.20
2018-04-02T14:26:17.690Z,18.20
2018-04-02T14:28:49.341Z,18.10
2018-04-02T14:31:33.881Z,18.30
2018-04-02T14:34:27.377Z,18.00
2018-04-02T14:36:55.429Z,17.90
2018-04-02T14:39:28.516Z,17.90
2018-04-02T14:42:01.283Z,17.20
2018-04-02T14:44:31.257Z,16.80
2018-04-02T14:46:59.240Z,16.60
2018-04-02T14:49:40.591Z,16.30
2018-04-02T14:52:10.591Z,16.30
2018-04-02T14:54:38.605Z,16.20
2018-04-02T14:57:16.428Z,16.10
2018-04-02T14:59:47.504Z,15.60
2018-04-02T15:02:16.696Z,15.90
2018-04-02T15:04:48.025Z,16.30
2018-04-02T15:10:09.797Z,16.50
2018-04-02T15:12:41.036Z,16.50
2018-04-02T15:15:27.265Z,16.40
2018-04-02T15:17:59.435Z,16.80
2018-04-02T15:20:32.197Z,16.80
2018-04-02T15:23:04.244Z,16.50
2018-04-02T15:25:36.463Z,16.20
2018-04-02T15:28:08.481Z,15.80
2018-04-02T15:30:36.513Z,15.30
2018-04-02T15:33:14.656Z,14.80
2018-04-02T15:35:48.440Z,14.40
2018-04-02T15:38:18.232Z,14.00
2018-04-02T15:40:49.222Z,13.90
2018-04-02T15:43:23.604Z,13.90
2018-04-02T15:46:02.460Z,13.80
2018-04-02T15:48:32.356Z,13.70
2018-04-02T15:51:01.396Z,13.70
2018-04-02T15:53:36.557Z,13.70
2018-04-02T15:56:13.436Z,13.80
2018-04-02T15:58:52.160Z,13.90
2018-04-02T16:01:27.910Z,13.70
2018-04-02T16:03:59.916Z,13.60
2018-04-02T16:06:27.924Z,13.50
2018-04-02T16:08:57.872Z,13.30
2018-04-02T16:11:27.792Z,13.20
2018-04-02T16:14:00.789Z,13.10
2018-04-02T16:16:42.000Z,13.00
2018-04-02T16:19:12.688Z,12.90
2018-04-02T16:22:00.800Z,12.80
2018-04-02T16:24:29.720Z,12.80
2018-04-02T16:27:04.787Z,12.80
2018-04-02T16:29:33.756Z,12.70
2018-04-02T16:32:09.991Z,12.70
2018-04-02T16:34:39.900Z,12.60
2018-04-02T16:37:09.808Z,12.50
2018-04-02T16:39:38.781Z,12.40
2018-04-02T16:42:13.256Z,12.20
2018-04-02T16:44:48.673Z,12.10
2018-04-02T16:47:16.705Z,12.00
2018-04-02T16:49:48.532Z,11.80
2018-04-02T16:52:17.535Z,11.70
2018-04-02T16:54:49.884Z,11.70
2018-04-02T16:57:25.468Z,11.50
2018-04-02T16:59:57.072Z,11.30
2018-04-02T17:02:25.084Z,11.30
2018-04-02T17:04:56.632Z,11.30
2018-04-02T17:07:28.584Z,11.20
2018-04-02T17:10:07.988Z,11.10
2018-04-02T17:12:37.944Z,11.00
2018-04-02T17:15:07.861Z,10.80
2018-04-02T17:17:35.876Z,10.70
2018-04-02T17:20:04.869Z,10.60
2018-04-02T17:22:32.816Z,10.60
2018-04-02T17:25:02.476Z,10.50
2018-04-02T17:27:30.484Z,10.50
2018-04-02T17:30:01.188Z,10.30
2018-04-02T17:32:29.192Z,10.30
2018-04-02T17:35:00.413Z,10.20
2018-04-02T17:37:28.432Z,10.10
2018-04-02T17:40:04.712Z,10.00
2018-04-02T17:42:38.539Z,9.90
2018-04-02T17:45:18.168Z,9.80
2018-04-02T17:47:48.100Z,9.80
2018-04-02T17:50:23.816Z,9.70
2018-04-02T17:52:56.828Z,9.70
2018-04-02T17:55:26.744Z,9.50
2018-04-02T17:57:54.796Z,9.40
2018-04-02T18:00:28.789Z,9.30
2018-04-02T18:02:57.723Z,9.30
2018-04-02T18:05:25.740Z,9.30
2018-04-02T18:07:57.439Z,9.30
2018-04-02T18:10:25.465Z,9.30
2018-04-02T18:12:53.480Z,9.40
2018-04-02T18:15:21.483Z,9.40
2018-04-02T18:17:49.496Z,9.40
2018-04-02T18:20:19.429Z,9.40
2018-04-02T18:22:51.803Z,9.40
2018-04-02T18:25:24.530Z,9.40
2018-04-02T18:27:58.174Z,9.50
2018-04-02T18:30:27.075Z,9.50
2018-04-02T18:33:02.383Z,9.40
2018-04-02T18:35:32.340Z,9.30
2018-04-02T18:38:02.379Z,9.10
2018-04-02T18:40:35.123Z,8.90
2018-04-02T18:43:03.352Z,8.80
2018-04-02T18:45:34.788Z,8.80
2018-04-02T18:48:08.436Z,8.80
2018-04-02T18:50:40.431Z,8.80
2018-04-02T18:53:09.424Z,8.80
2018-04-02T18:55:39.548Z,8.80
2018-04-02T18:58:26.408Z,8.70
2018-04-02T19:01:02.480Z,8.60
2018-04-02T19:03:31.525Z,8.50
2018-04-02T19:06:01.516Z,8.50
2018-04-02T19:08:31.520Z,8.40
2018-04-02T19:11:02.468Z,8.40
2018-04-02T19:13:32.487Z,8.50
2018-04-02T19:16:02.824Z,8.60
2018-04-02T19:18:30.856Z,8.70
2018-04-02T19:20:59.216Z,8.70
2018-04-02T19:23:27.252Z,8.80
2018-04-02T19:25:56.068Z,8.80
2018-04-02T19:28:24.105Z,8.80
2018-04-02T19:30:52.880Z,8.80
2018-04-02T19:33:26.531Z,8.80
2018-04-02T19:35:54.560Z,8.80
2018-04-02T19:38:23.392Z,8.90
2018-04-02T19:40:59.600Z,8.90
2018-04-02T19:43:37.980Z,8.90
2018-04-02T19:46:07.891Z,8.80
2018-04-02T19:48:36.903Z,8.70
2018-04-02T19:51:08.276Z,8.70
2018-04-02T19:53:42.547Z,8.80
2018-04-02T19:56:21.724Z,8.90
2018-04-02T19:58:49.748Z,8.90
2018-04-02T20:01:17.796Z,8.90
2018-04-02T20:03:45.835Z,8.90
2018-04-02T20:06:13.867Z,9.00
2018-04-02T20:08:45.151Z,9.00
2018-04-02T20:11:13.763Z,9.00
2018-04-02T20:13:43.775Z,9.00
2018-04-02T20:16:13.567Z,9.00
2018-04-02T20:18:42.572Z,9.00
2018-04-02T20:21:13.576Z,9.00
2018-04-02T20:23:43.619Z,9.00
2018-04-02T20:26:16.191Z,9.10
2018-04-02T20:28:48.909Z,9.20
2018-04-02T20:31:20.703Z,9.20
2018-04-02T20:33:52.321Z,9.20
2018-04-02T20:36:25.047Z,9.20
2018-04-02T20:38:57.819Z,9.30
2018-04-02T20:41:33.827Z,9.30
2018-04-02T20:44:01.903Z,9.30
2018-04-02T20:46:35.675Z,9.30
2018-04-02T20:49:04.675Z,9.30
2018-04-02T20:51:38.343Z,9.30
2018-04-02T20:54:07.372Z,9.20
2018-04-02T20:56:38.526Z,9.10
2018-04-02T20:59:10.255Z,9.00
2018-04-02T21:01:42.875Z,9.10
2018-04-02T21:04:13.295Z,9.30
2018-04-02T21:06:41.347Z,9.50
2018-04-02T21:09:16.538Z,9.50
2018-04-02T21:11:44.533Z,9.60
2018-04-02T21:14:17.843Z,9.80
2018-04-02T21:16:51.246Z,9.90
2018-04-02T21:19:25.160Z,9.90
2018-04-02T21:21:57.493Z,10.00
2018-04-02T21:24:25.900Z,10.00
2018-04-02T21:26:56.863Z,10.00
2018-04-02T21:29:28.338Z,9.90
2018-04-02T21:31:56.791Z,10.00
2018-04-02T21:34:24.883Z,9.90
2018-04-02T21:36:56.294Z,9.80
2018-04-02T21:39:30.920Z,9.70
2018-04-02T21:42:00.918Z,9.70
2018-04-02T21:44:36.000Z,9.50
2018-04-02T21:47:04.134Z,9.50
2018-04-02T21:49:35.766Z,9.40
2018-04-02T21:52:08.282Z,9.30
2018-04-02T21:54:37.225Z,9.20
2018-04-02T21:57:07.255Z,9.00
2018-04-02T21:59:36.235Z,8.90
2018-04-02T22:02:04.302Z,8.70
2018-04-02T22:04:32.355Z,8.60
2018-04-02T22:07:08.378Z,8.50
2018-04-02T22:09:48.484Z,8.60
2018-04-02T22:12:18.967Z,8.70
2018-04-02T22:14:48.978Z,8.80
2018-04-02T22:17:17.214Z,8.80
2018-04-02T22:19:50.120Z,8.70
2018-04-02T22:22:20.089Z,8.70
2018-04-02T22:24:48.153Z,8.80
2018-04-02T22:27:16.162Z,8.90
2018-04-02T22:29:49.935Z,8.80
2018-04-02T22:32:17.966Z,8.80
2018-04-02T22:34:46.058Z,8.70
2018-04-02T22:37:14.120Z,8.60
2018-04-02T22:39:46.878Z,8.70
2018-04-02T22:42:23.394Z,8.80
2018-04-02T22:44:51.446Z,8.90
2018-04-02T22:47:20.514Z,9.00
2018-04-02T22:49:49.502Z,9.00
2018-04-02T22:52:19.486Z,9.20
2018-04-02T22:54:53.782Z,9.30
2018-04-02T22:57:26.073Z,9.40
2018-04-02T22:59:54.106Z,9.50
2018-04-02T23:02:23.361Z,9.50
2018-04-02T23:04:53.234Z,9.50
2018-04-02T23:07:31.294Z,9.40
2018-04-02T23:10:05.131Z,9.40
2018-04-02T23:12:38.149Z,9.20
2018-04-02T23:15:07.198Z,9.00
2018-04-02T23:17:37.169Z,8.90
2018-04-02T23:20:06.170Z,8.80
2018-04-02T23:22:48.722Z,8.70
2018-04-02T23:25:16.753Z,8.70
2018-04-02T23:27:46.513Z,8.70
2018-04-02T23:30:15.585Z,8.70
2018-04-02T23:32:48.525Z,8.80
2018-04-02T23:35:16.554Z,8.80
2018-04-02T23:37:44.589Z,8.80
2018-04-02T23:40:19.160Z,8.80
2018-04-02T23:42:50.341Z,8.70
2018-04-02T23:45:18.397Z,8.70
2018-04-02T23:47:47.633Z,8.70
2018-04-02T23:50:17.598Z,8.70
2018-04-02T23:52:45.690Z,8.70
2018-04-02T23:55:14.734Z,8.70
2018-04-02T23:57:44.721Z,8.60
